Time;durP1;ratioP1;P1;durP2;ratioP2;P2;SDS_P1;SDS_P2;PMS_P1;PMS_P2;Temp;Humidity;BMP_temperature;BMP_pressure;BME280_temperature;BME280_humidity;BME280_pressure;Samples;Min_cycle;Max_cycle;Signal;HPM_P1;HPM_P2
2022/06/02 00:02:23;;;;;;;0.20;0.20;;;;;;;;;;5051362;28;20457;-75
2022/06/02 00:04:58;;;;;;;0.10;0.10;;;;;;;;;;5052474;28;20044;-75
2022/06/02 00:07:30;;;;;;;0.15;0.15;;;;;;;;;;5052349;28;20047;-77
2022/06/02 00:10:05;;;;;;;0.20;0.20;;;;;;;;;;5050996;28;20094;-76
2022/06/02 00:12:31;;;;;;;0.20;0.20;;;;;;;;;;5050843;28;20044;-76
2022/06/02 00:15:02;;;;;;;0.10;0.10;;;;;;;;;;5051950;28;20381;-76
2022/06/02 00:17:37;;;;;;;0.20;0.20;;;;;;;;;;5034494;28;20044;-76
2022/06/02 00:20:08;;;;;;;0.10;0.10;;;;;;;;;;5034049;28;20064;-76
2022/06/02 00:22:54;;;;;;;0.20;0.20;;;;;;;;;;5052499;28;20029;-76
2022/06/02 00:25:29;;;;;;;0.10;0.10;;;;;;;;;;5033217;28;20135;-76
2022/06/02 00:27:54;;;;;;;0.15;0.15;;;;;;;;;;5034164;28;20036;-76
2022/06/02 00:30:25;;;;;;;0.20;0.20;;;;;;;;;;5034044;28;20238;-76
2022/06/02 00:33:09;;;;;;;0.20;0.20;;;;;;;;;;5034074;28;20071;-76
2022/06/02 00:35:46;;;;;;;0.20;0.20;;;;;;;;;;5051879;28;20033;-76
2022/06/02 00:38:18;;;;;;;0.20;0.20;;;;;;;;;;5033795;28;20033;-76
2022/06/02 00:40:44;;;;;;;0.20;0.20;;;;;;;;;;5034221;28;20040;-76
2022/06/02 00:43:45;;;;;;;0.20;0.20;;;;;;;;;;5051181;28;20033;-76
2022/06/02 00:46:10;;;;;;;0.20;0.20;;;;;;;;;;4990094;28;20131;-76
2022/06/02 00:48:52;;;;;;;0.20;0.20;;;;;;;;;;5038867;28;20072;-76
2022/06/02 00:51:23;;;;;;;0.10;0.10;;;;;;;;;;5052372;28;20086;-76
2022/06/02 00:59:40;;;;;;;0.10;0.10;;;;;;;;;;5031871;28;20064;-76
2022/06/02 01:02:05;;;;;;;0.20;0.20;;;;;;;;;;5031456;28;20037;-76
2022/06/02 01:04:34;;;;;;;0.20;0.20;;;;;;;;;;5031806;28;20037;-76
2022/06/02 01:07:18;;;;;;;0.20;0.20;;;;;;;;;;5035193;28;20082;-76
2022/06/02 01:10:05;;;;;;;0.20;0.20;;;;;;;;;;5035092;28;20366;-75
2022/06/02 01:12:46;;;;;;;0.25;0.25;;;;;;;;;;5045208;28;20061;-76
2022/06/02 01:15:17;;;;;;;0.20;0.20;;;;;;;;;;5037123;28;20391;-76
2022/06/02 01:17:52;;;;;;;0.20;0.20;;;;;;;;;;5054644;28;20040;-76
2022/06/02 01:20:35;;;;;;;0.20;0.20;;;;;;;;;;5054767;28;20025;-76
2022/06/02 01:23:21;;;;;;;0.10;0.10;;;;;;;;;;5055153;28;20039;-76
2022/06/02 01:26:06;;;;;;;0.20;0.20;;;;;;;;;;5054800;28;20037;-77
2022/06/02 01:28:32;;;;;;;0.20;0.20;;;;;;;;;;5054800;28;20039;-77
2022/06/02 01:31:09;;;;;;;0.20;0.20;;;;;;;;;;5054960;28;20460;-76
2022/06/02 01:33:41;;;;;;;0.10;0.10;;;;;;;;;;5054176;28;20040;-76
2022/06/02 01:36:16;;;;;;;0.20;0.20;;;;;;;;;;5054561;28;20041;-76
2022/06/02 01:39:06;;;;;;;0.10;0.10;;;;;;;;;;5036526;28;20123;-76
2022/06/02 01:41:32;;;;;;;;;;;;;;;;;;5055134;28;20369;-75
2022/06/02 01:43:58;;;;;;;0.10;0.10;;;;;;;;;;5053616;28;19920;-76
2022/06/02 01:46:28;;;;;;;0.10;0.10;;;;;;;;;;5020099;28;20037;-75
2022/06/02 01:48:58;;;;;;;0.10;0.10;;;;;;;;;;5054451;28;20481;-76
2022/06/02 01:51:24;;;;;;;0.10;0.10;;;;;;;;;;5054320;28;20076;-76
2022/06/02 01:54:08;;;;;;;0.20;0.20;;;;;;;;;;5054349;28;20061;-76
2022/06/02 01:56:55;;;;;;;0.20;0.20;;;;;;;;;;5054427;28;20035;-75
2022/06/02 01:59:39;;;;;;;0.20;0.20;;;;;;;;;;5054383;28;20056;-76
2022/06/02 02:02:12;;;;;;;0.10;0.10;;;;;;;;;;5054236;28;20029;-76
2022/06/02 02:04:43;;;;;;;0.20;0.20;;;;;;;;;;5054281;28;20048;-76
2022/06/02 02:07:28;;;;;;;0.25;0.25;;;;;;;;;;5054202;28;20570;-77
2022/06/02 02:09:53;;;;;;;0.13;0.13;;;;;;;;;;5054050;28;20041;-76
2022/06/02 02:12:39;;;;;;;0.10;0.10;;;;;;;;;;5054038;28;20087;-76
2022/06/02 02:15:12;;;;;;;0.30;0.30;;;;;;;;;;5044530;28;20052;-76
2022/06/02 02:17:59;;;;;;;0.10;0.10;;;;;;;;;;5037391;28;20132;-76
2022/06/02 02:20:30;;;;;;;0.20;0.20;;;;;;;;;;5056236;28;20056;-75
2022/06/02 02:23:08;;;;;;;0.20;0.20;;;;;;;;;;5074036;28;20025;-75
2022/06/02 02:25:56;;;;;;;0.15;0.15;;;;;;;;;;5068272;28;20051;-76
2022/06/02 02:28:37;;;;;;;0.20;0.20;;;;;;;;;;5045952;28;20056;-75
2022/06/02 02:31:06;;;;;;;0.20;0.20;;;;;;;;;;5053907;28;20279;-76
2022/06/02 02:33:37;;;;;;;0.40;0.40;;;;;;;;;;5053808;28;20059;-75
2022/06/02 02:36:11;;;;;;;0.20;0.20;;;;;;;;;;5053825;28;20037;-75
2022/06/02 02:38:48;;;;;;;2.50;1.75;;;;;;;;;;5053692;28;20486;-76
2022/06/02 02:41:34;;;;;;;0.20;0.20;;;;;;;;;;5052669;28;20079;-74
2022/06/02 02:44:06;;;;;;;0.10;0.10;;;;;;;;;;5042658;28;20132;-76
2022/06/02 02:46:35;;;;;;;0.30;0.30;;;;;;;;;;5053522;28;20560;-75
2022/06/02 02:49:00;;;;;;;0.20;0.20;;;;;;;;;;5053687;28;20032;-75
2022/06/02 02:51:43;;;;;;;0.10;0.10;;;;;;;;;;5053519;28;20571;-76
2022/06/02 02:54:14;;;;;;;0.10;0.10;;;;;;;;;;5053182;28;20041;-75
2022/06/02 02:56:59;;;;;;;0.30;0.30;;;;;;;;;;5052610;28;20036;-76
2022/06/02 02:59:32;;;;;;;0.35;0.35;;;;;;;;;;5042965;28;20072;-76
2022/06/02 03:02:04;;;;;;;0.45;0.43;;;;;;;;;;5052129;28;20103;-75
2022/06/02 03:04:51;;;;;;;0.22;0.22;;;;;;;;;;5048275;28;20029;-75
2022/06/02 03:07:17;;;;;;;0.85;0.85;;;;;;;;;;5049585;28;20044;-75
2022/06/02 03:09:50;;;;;;;0.20;0.20;;;;;;;;;;5048378;28;20037;-75
2022/06/02 03:12:23;;;;;;;0.47;0.47;;;;;;;;;;5049041;28;20095;-75
2022/06/02 03:14:52;;;;;;;0.20;0.20;;;;;;;;;;5049159;28;20029;-76
2022/06/02 03:17:20;;;;;;;0.13;0.13;;;;;;;;;;5031819;28;20036;-75
2022/06/02 03:19:58;;;;;;;0.10;0.10;;;;;;;;;;5049192;28;20032;-73
2022/06/02 03:22:36;;;;;;;0.20;0.20;;;;;;;;;;5047881;28;20067;-76
2022/06/02 03:25:04;;;;;;;0.10;0.10;;;;;;;;;;5048948;28;20048;-75
2022/06/02 03:27:36;;;;;;;0.10;0.10;;;;;;;;;;5029526;28;20041;-76
2022/06/02 03:30:22;;;;;;;0.10;0.10;;;;;;;;;;5049032;28;20033;-76
2022/06/02 03:33:06;;;;;;;0.20;0.20;;;;;;;;;;5049024;28;20087;-75
2022/06/02 03:35:46;;;;;;;0.20;0.20;;;;;;;;;;5049239;28;20055;-76
2022/06/02 03:38:14;;;;;;;0.20;0.20;;;;;;;;;;5048935;28;20124;-75
2022/06/02 03:41:09;;;;;;;0.15;0.15;;;;;;;;;;5031391;28;20033;-73
2022/06/02 03:43:38;;;;;;;0.20;0.20;;;;;;;;;;5017787;28;20546;-76
2022/06/02 03:46:15;;;;;;;0.17;0.17;;;;;;;;;;5048380;28;20033;-75
2022/06/02 03:48:59;;;;;;;0.10;0.10;;;;;;;;;;5027182;28;20042;-76
2022/06/02 03:51:40;;;;;;;0.20;0.20;;;;;;;;;;5029301;28;20381;-75
2022/06/02 03:54:12;;;;;;;0.20;0.20;;;;;;;;;;5028893;28;20041;-75
2022/06/02 03:56:37;;;;;;;0.20;0.20;;;;;;;;;;5038075;28;20040;-75
2022/06/02 03:59:09;;;;;;;0.10;0.10;;;;;;;;;;5048649;28;20032;-75
2022/06/02 04:01:40;;;;;;;0.10;0.10;;;;;;;;;;5048210;28;20118;-75
2022/06/02 04:04:44;;;;;;;0.13;0.13;;;;;;;;;;5030460;28;20033;-75
2022/06/02 04:07:22;;;;;;;0.20;0.20;;;;;;;;;;4986945;28;20501;-75
2022/06/02 04:10:03;;;;;;;0.20;0.20;;;;;;;;;;4987086;28;20041;-75
2022/06/02 04:15:18;;;;;;;0.20;0.20;;;;;;;;;;5047918;28;20040;-75
2022/06/02 04:18:22;;;;;;;0.10;0.10;;;;;;;;;;5048339;28;20059;-75
2022/06/02 04:20:56;;;;;;;0.15;0.15;;;;;;;;;;4983349;28;20054;-75
2022/06/02 04:23:40;;;;;;;0.45;0.45;;;;;;;;;;4967839;28;20046;-74
2022/06/02 04:26:24;;;;;;;0.20;0.20;;;;;;;;;;5005797;28;20065;-76
2022/06/02 04:29:08;;;;;;;0.20;0.20;;;;;;;;;;5011190;28;20461;-77
2022/06/02 04:31:36;;;;;;;0.75;0.75;;;;;;;;;;5028522;28;20037;-76
2022/06/02 04:34:20;;;;;;;0.20;0.20;;;;;;;;;;5028056;28;20057;-76
2022/06/02 04:36:55;;;;;;;0.20;0.20;;;;;;;;;;5028485;28;20091;-75
2022/06/02 04:39:35;;;;;;;0.10;0.10;;;;;;;;;;5030966;28;20095;-75
2022/06/02 04:42:04;;;;;;;0.30;0.30;;;;;;;;;;5024616;28;20563;-75
2022/06/02 04:44:40;;;;;;;0.20;0.20;;;;;;;;;;5055074;28;20032;-76
2022/06/02 04:47:18;;;;;;;0.15;0.15;;;;;;;;;;5053859;28;19930;-76
2022/06/02 04:50:02;;;;;;;0.40;0.40;;;;;;;;;;5054725;28;20064;-74
2022/06/02 04:52:42;;;;;;;0.15;0.15;;;;;;;;;;5054028;28;20064;-76
2022/06/02 04:55:21;;;;;;;0.28;0.28;;;;;;;;;;5053308;28;20036;-75
2022/06/02 04:57:54;;;;;;;0.10;0.10;;;;;;;;;;5053983;28;20489;-75
2022/06/02 05:00:38;;;;;;;0.20;0.20;;;;;;;;;;5052043;28;20029;-75
2022/06/02 05:03:07;;;;;;;0.15;0.15;;;;;;;;;;5053684;28;20116;-75
2022/06/02 05:05:38;;;;;;;0.20;0.20;;;;;;;;;;5054416;28;20061;-75
2022/06/02 05:08:03;;;;;;;0.15;0.15;;;;;;;;;;5054633;28;20558;-74
2022/06/02 05:10:42;;;;;;;0.20;0.20;;;;;;;;;;5035565;28;20126;-76
2022/06/02 05:13:07;;;;;;;0.20;0.20;;;;;;;;;;5054920;28;20040;-76
2022/06/02 05:15:51;;;;;;;0.20;0.20;;;;;;;;;;5054474;28;20372;-76
2022/06/02 05:18:35;;;;;;;0.30;0.30;;;;;;;;;;5054168;28;20061;-77
2022/06/02 05:21:01;;;;;;;0.20;0.20;;;;;;;;;;5053869;28;20045;-76
2022/06/02 05:23:32;;;;;;;0.35;0.35;;;;;;;;;;5053783;28;20092;-77
2022/06/02 05:26:16;;;;;;;0.20;0.20;;;;;;;;;;5034047;28;20428;-75
2022/06/02 05:28:55;;;;;;;0.20;0.20;;;;;;;;;;5034625;28;20037;-76
2022/06/02 05:31:20;;;;;;;0.20;0.20;;;;;;;;;;5043881;28;20029;-78
2022/06/02 05:33:45;;;;;;;0.17;0.17;;;;;;;;;;5054395;28;20037;-76
2022/06/02 05:36:11;;;;;;;0.20;0.20;;;;;;;;;;5053993;28;20044;-76
2022/06/02 05:38:55;;;;;;;0.20;0.20;;;;;;;;;;5054345;28;20107;-75
2022/06/02 05:41:39;;;;;;;0.20;0.20;;;;;;;;;;5053196;28;20170;-76
2022/06/02 05:44:16;;;;;;;0.20;0.20;;;;;;;;;;5036438;28;20048;-76
2022/06/02 05:47:00;;;;;;;0.20;0.20;;;;;;;;;;5053358;28;20065;-76
2022/06/02 05:49:25;;;;;;;0.38;0.38;;;;;;;;;;5053193;28;20037;-75
2022/06/02 05:52:09;;;;;;;0.47;0.47;;;;;;;;;;5048024;28;20044;-77
2022/06/02 05:54:52;;;;;;;0.30;0.30;;;;;;;;;;5050796;28;20043;-76
2022/06/02 05:57:36;;;;;;;0.20;0.20;;;;;;;;;;5047768;28;20028;-76
2022/06/02 06:00:11;;;;;;;0.20;0.20;;;;;;;;;;5050446;28;20369;-75
2022/06/02 06:03:08;;;;;;;0.20;0.20;;;;;;;;;;5047925;28;20041;-77
2022/06/02 06:05:50;;;;;;;0.20;0.20;;;;;;;;;;5019158;28;20048;-78
2022/06/02 06:08:35;;;;;;;0.20;0.20;;;;;;;;;;5048655;28;20045;-76
2022/06/02 06:11:08;;;;;;;0.10;0.10;;;;;;;;;;5050077;28;20193;-76
2022/06/02 06:13:58;;;;;;;0.20;0.20;;;;;;;;;;5028703;28;20435;-75
2022/06/02 06:16:30;;;;;;;0.17;0.17;;;;;;;;;;5030692;28;20040;-75
2022/06/02 06:18:55;;;;;;;0.20;0.20;;;;;;;;;;5030187;28;20057;-76
2022/06/02 06:21:24;;;;;;;0.30;0.30;;;;;;;;;;5030627;28;20025;-76
2022/06/02 06:24:07;;;;;;;0.20;0.20;;;;;;;;;;5031298;28;20048;-76
2022/06/02 06:26:39;;;;;;;0.10;0.10;;;;;;;;;;5049877;28;20522;-76
2022/06/02 06:29:11;;;;;;;0.20;0.20;;;;;;;;;;5050468;28;20033;-76
2022/06/02 06:31:44;;;;;;;0.75;0.75;;;;;;;;;;5050183;28;20476;-77
2022/06/02 06:34:45;;;;;;;0.20;0.20;;;;;;;;;;5050617;28;20541;-76
2022/06/02 06:37:22;;;;;;;0.20;0.20;;;;;;;;;;4988766;28;20130;-73
2022/06/02 06:40:02;;;;;;;1.10;1.10;;;;;;;;;;5041574;28;20818;-78
2022/06/02 06:42:46;;;;;;;2.05;0.70;;;;;;;;;;5050060;28;20392;-76
2022/06/02 06:45:15;;;;;;;0.28;0.28;;;;;;;;;;5049299;28;20427;-75
2022/06/02 06:47:45;;;;;;;0.20;0.20;;;;;;;;;;5028888;28;20034;-75
2022/06/02 06:50:26;;;;;;;1.95;1.13;;;;;;;;;;5029830;28;20477;-78
2022/06/02 06:52:54;;;;;;;0.20;0.20;;;;;;;;;;5048480;28;20035;-80
2022/06/02 06:55:19;;;;;;;0.40;0.40;;;;;;;;;;5031445;28;20115;-80
2022/06/02 06:57:48;;;;;;;0.40;0.40;;;;;;;;;;5032200;28;20107;-81
2022/06/02 07:00:21;;;;;;;0.20;0.20;;;;;;;;;;5028275;28;20040;-78
2022/06/02 07:02:52;;;;;;;0.30;0.30;;;;;;;;;;5038495;28;20041;-75
2022/06/02 07:05:37;;;;;;;0.40;0.40;;;;;;;;;;5029973;28;20073;-77
2022/06/02 07:08:11;;;;;;;0.40;0.40;;;;;;;;;;5012128;28;20041;-78
2022/06/02 07:10:55;;;;;;;0.20;0.20;;;;;;;;;;5029985;28;20045;-76
2022/06/02 07:13:24;;;;;;;0.30;0.30;;;;;;;;;;5028295;28;20560;-76
2022/06/02 07:15:52;;;;;;;0.20;0.20;;;;;;;;;;5030068;28;20049;-79
2022/06/02 07:18:37;;;;;;;0.20;0.20;;;;;;;;;;5029687;28;20060;-75
2022/06/02 07:21:41;;;;;;;0.20;0.20;;;;;;;;;;5029837;28;20037;-75
2022/06/02 07:24:25;;;;;;;0.30;0.30;;;;;;;;;;4968276;28;20062;-76
2022/06/02 07:26:57;;;;;;;0.30;0.30;;;;;;;;;;4968636;28;20538;-76
2022/06/02 07:29:42;;;;;;;0.95;0.82;;;;;;;;;;5006535;28;20444;-75
2022/06/02 07:32:19;;;;;;;0.40;0.40;;;;;;;;;;5029436;28;20036;-76
2022/06/02 07:34:51;;;;;;;0.30;0.30;;;;;;;;;;5029633;28;20044;-74
2022/06/02 07:37:24;;;;;;;0.30;0.30;;;;;;;;;;5029314;28;20056;-76
2022/06/02 07:39:52;;;;;;;5.38;5.07;;;;;;;;;;5029385;28;20041;-78
2022/06/02 07:42:30;;;;;;;0.40;0.37;;;;;;;;;;5028917;28;20071;-76
2022/06/02 07:45:03;;;;;;;5.03;1.55;;;;;;;;;;5028962;28;20037;-74
2022/06/02 07:47:41;;;;;;;0.25;0.25;;;;;;;;;;5029129;28;20557;-77
2022/06/02 07:50:06;;;;;;;0.28;0.28;;;;;;;;;;5011423;28;20456;-76
2022/06/02 07:52:42;;;;;;;0.30;0.30;;;;;;;;;;5011162;28;20112;-76
2022/06/02 07:55:14;;;;;;;0.30;0.30;;;;;;;;;;5029150;28;20055;-78
2022/06/02 07:57:48;;;;;;;0.43;0.43;;;;;;;;;;5029137;28;20127;-77
2022/06/02 08:00:21;;;;;;;0.30;0.30;;;;;;;;;;5028673;28;20521;-74
2022/06/02 08:03:00;;;;;;;0.82;0.82;;;;;;;;;;5028698;28;20030;-76
2022/06/02 08:05:27;;;;;;;;;;;;;;;;;;5028858;28;20099;-76
2022/06/02 08:07:57;;;;;;;0.30;0.30;;;;;;;;;;5028875;28;20011;-75
2022/06/02 08:10:27;;;;;;;0.32;0.32;;;;;;;;;;5029186;28;20037;-80
2022/06/02 08:12:59;;;;;;;0.40;0.40;;;;;;;;;;5029479;28;20392;-80
2022/06/02 08:15:30;;;;;;;0.30;0.30;;;;;;;;;;5027205;28;20613;-78
2022/06/02 08:18:02;;;;;;;0.40;0.40;;;;;;;;;;5028288;28;20388;-73
2022/06/02 08:20:52;;;;;;;0.30;0.30;;;;;;;;;;5036043;28;20029;-76
2022/06/02 08:23:24;;;;;;;0.30;0.30;;;;;;;;;;5046226;28;20041;-78
2022/06/02 08:25:57;;;;;;;0.40;0.40;;;;;;;;;;5047296;28;20079;-77
2022/06/02 08:28:37;;;;;;;0.40;0.40;;;;;;;;;;5032526;28;20041;-77
2022/06/02 08:31:10;;;;;;;16.98;1.60;;;;;;;;;;5046325;28;20492;-75
2022/06/02 08:33:38;;;;;;;0.40;0.40;;;;;;;;;;5047192;28;20032;-75
2022/06/02 08:36:07;;;;;;;0.40;0.40;;;;;;;;;;5028555;28;20033;-75
2022/06/02 08:38:49;;;;;;;0.40;0.40;;;;;;;;;;5038913;28;20083;-75
2022/06/02 08:41:37;;;;;;;0.40;0.40;;;;;;;;;;5010453;28;20037;-76
2022/06/02 08:44:23;;;;;;;0.32;0.32;;;;;;;;;;5028150;28;20484;-76
2022/06/02 08:47:07;;;;;;;0.50;0.50;;;;;;;;;;5028404;28;20457;-74
2022/06/02 08:49:45;;;;;;;0.75;0.75;;;;;;;;;;5027938;28;20124;-75
2022/06/02 08:52:19;;;;;;;3.00;0.55;;;;;;;;;;5027881;28;20041;-78
2022/06/02 08:54:54;;;;;;;0.40;0.40;;;;;;;;;;5010642;28;20346;-76
2022/06/02 08:57:43;;;;;;;0.40;0.40;;;;;;;;;;5026982;28;20038;-76
2022/06/02 09:00:09;;;;;;;;;;;;;;;;;;5002594;28;20508;-76
2022/06/02 09:02:40;;;;;;;0.50;0.50;;;;;;;;;;5028638;28;19913;-77
2022/06/02 09:05:25;;;;;;;0.40;0.40;;;;;;;;;;5028130;28;20041;-77
2022/06/02 09:07:53;;;;;;;0.50;0.50;;;;;;;;;;5027788;28;20071;-77
2022/06/02 09:10:18;;;;;;;1.88;1.00;;;;;;;;;;5009943;28;20049;-77
2022/06/02 09:13:02;;;;;;;0.40;0.40;;;;;;;;;;4994059;28;20045;-75
2022/06/02 09:15:54;;;;;;;0.40;0.40;;;;;;;;;;5036894;28;20762;-74
2022/06/02 09:18:40;;;;;;;0.30;0.30;;;;;;;;;;5018932;28;20041;-75
2022/06/02 09:21:08;;;;;;;0.32;0.32;;;;;;;;;;5024643;28;20517;-74
2022/06/02 09:23:47;;;;;;;0.50;0.50;;;;;;;;;;5036109;28;20498;-75
2022/06/02 09:26:18;;;;;;;0.60;0.60;;;;;;;;;;5010685;28;20048;-75
2022/06/02 09:28:57;;;;;;;0.50;0.50;;;;;;;;;;5013592;28;20037;-76
2022/06/02 09:31:41;;;;;;;0.50;0.50;;;;;;;;;;5040700;28;20044;-75
2022/06/02 09:34:16;;;;;;;0.40;0.40;;;;;;;;;;5039768;28;20112;-75
2022/06/02 09:36:57;;;;;;;1.40;1.27;;;;;;;;;;5043667;28;20044;-75
2022/06/02 09:39:31;;;;;;;0.50;0.50;;;;;;;;;;5043357;28;20033;-76
2022/06/02 09:42:22;;;;;;;0.60;0.60;;;;;;;;;;5048195;28;20028;-75
2022/06/02 09:44:47;;;;;;;7.32;2.67;;;;;;;;;;5044528;28;20045;-76
2022/06/02 09:47:18;;;;;;;0.40;0.40;;;;;;;;;;5038053;28;20030;-77
2022/06/02 09:49:57;;;;;;;7.55;2.85;;;;;;;;;;5014735;28;20040;-76
2022/06/02 09:52:42;;;;;;;1.80;1.48;;;;;;;;;;5030925;28;20025;-76
2022/06/02 09:55:18;;;;;;;4.00;1.55;;;;;;;;;;5049312;28;20056;-78
2022/06/02 09:57:57;;;;;;;9.52;2.17;;;;;;;;;;5030726;28;20040;-76
2022/06/02 10:00:23;;;;;;;2.55;1.45;;;;;;;;;;5032314;28;20033;-76
2022/06/02 10:02:54;;;;;;;2.70;1.50;;;;;;;;;;5049428;28;20041;-76
2022/06/02 10:05:29;;;;;;;7.38;2.72;;;;;;;;;;5032735;28;20291;-76
2022/06/02 10:07:58;;;;;;;0.47;0.47;;;;;;;;;;5050312;28;20029;-76
2022/06/02 10:10:33;;;;;;;4.65;2.10;;;;;;;;;;5049025;28;20021;-77
2022/06/02 10:13:17;;;;;;;0.50;0.50;;;;;;;;;;5050206;28;20033;-76
2022/06/02 10:16:03;;;;;;;15.55;1.63;;;;;;;;;;5050746;28;20036;-76
2022/06/02 10:18:29;;;;;;;0.30;0.30;;;;;;;;;;5043830;28;20037;-76
2022/06/02 10:21:01;;;;;;;0.80;0.80;;;;;;;;;;5031303;28;20120;-72
2022/06/02 10:23:35;;;;;;;3.70;0.90;;;;;;;;;;5035837;28;20132;-75
2022/06/02 10:26:15;;;;;;;0.30;0.30;;;;;;;;;;5029255;28;20041;-75
2022/06/02 10:28:40;;;;;;;0.77;0.75;;;;;;;;;;5012535;28;20139;-76
2022/06/02 10:31:16;;;;;;;0.43;0.43;;;;;;;;;;5030048;28;20112;-78
2022/06/02 10:33:44;;;;;;;0.32;0.32;;;;;;;;;;5012511;28;20435;-78
2022/06/02 10:36:19;;;;;;;0.30;0.30;;;;;;;;;;5029742;28;20370;-78
2022/06/02 10:38:53;;;;;;;0.77;0.63;;;;;;;;;;5030420;28;20491;-77
2022/06/02 10:41:32;;;;;;;1.08;1.08;;;;;;;;;;5030491;28;20033;-75
2022/06/02 10:44:04;;;;;;;0.40;0.40;;;;;;;;;;5012420;28;20397;-75
2022/06/02 10:46:48;;;;;;;0.57;0.57;;;;;;;;;;5029857;28;20073;-75
2022/06/02 10:49:16;;;;;;;0.55;0.55;;;;;;;;;;5012431;28;20096;-74
2022/06/02 10:52:00;;;;;;;0.45;0.45;;;;;;;;;;5012380;28;20029;-78
2022/06/02 10:54:26;;;;;;;3.20;1.98;;;;;;;;;;5030188;28;20076;-76
2022/06/02 10:57:01;;;;;;;1.42;1.33;;;;;;;;;;5029796;28;20057;-78
2022/06/02 10:59:26;;;;;;;0.77;0.77;;;;;;;;;;5029920;28;20087;-77
2022/06/02 11:01:51;;;;;;;0.40;0.40;;;;;;;;;;5029977;28;20029;-76
2022/06/02 11:04:17;;;;;;;0.40;0.40;;;;;;;;;;5032127;28;20033;-76
2022/06/02 11:06:54;;;;;;;0.45;0.45;;;;;;;;;;5042079;28;20045;-75
2022/06/02 11:09:30;;;;;;;0.50;0.50;;;;;;;;;;5047856;28;20037;-77
2022/06/02 11:11:55;;;;;;;0.43;0.43;;;;;;;;;;5060477;28;20052;-75
2022/06/02 11:14:39;;;;;;;0.43;0.43;;;;;;;;;;5048478;28;20043;-76
2022/06/02 11:17:21;;;;;;;0.50;0.50;;;;;;;;;;5047899;28;20048;-76
2022/06/02 11:19:46;;;;;;;0.40;0.40;;;;;;;;;;5049455;28;20033;-75
2022/06/02 11:22:11;;;;;;;2.10;1.97;;;;;;;;;;5031569;28;20082;-74
2022/06/02 11:24:50;;;;;;;0.73;0.68;;;;;;;;;;5049488;28;20611;-76
2022/06/02 11:27:21;;;;;;;0.63;0.57;;;;;;;;;;5049288;28;20037;-75
2022/06/02 11:30:02;;;;;;;2.28;1.23;;;;;;;;;;5031430;28;20025;-75
2022/06/02 11:32:53;;;;;;;1.88;1.35;;;;;;;;;;5048171;28;20036;-75
2022/06/02 11:35:37;;;;;;;6.32;3.92;;;;;;;;;;5025157;28;20045;-75
2022/06/02 11:38:05;;;;;;;2.55;1.42;;;;;;;;;;5035573;28;20029;-75
2022/06/02 11:40:43;;;;;;;2.05;1.00;;;;;;;;;;5043701;28;20134;-76
2022/06/02 11:43:13;;;;;;;2.30;1.08;;;;;;;;;;5030373;28;20396;-76
2022/06/02 11:45:48;;;;;;;1.42;1.20;;;;;;;;;;5048253;28;20129;-76
2022/06/02 11:48:20;;;;;;;0.60;0.60;;;;;;;;;;5048635;28;20037;-77
2022/06/02 11:50:48;;;;;;;1.10;1.00;;;;;;;;;;5045730;28;20030;-78
2022/06/02 11:53:32;;;;;;;4.70;1.90;;;;;;;;;;5048145;28;20033;-77
2022/06/02 11:56:15;;;;;;;1.80;1.05;;;;;;;;;;5037512;28;20029;-77
2022/06/02 11:58:44;;;;;;;1.05;0.90;;;;;;;;;;5048717;28;20055;-76
2022/06/02 12:01:24;;;;;;;3.67;1.37;;;;;;;;;;5048790;28;20033;-76
2022/06/02 12:03:50;;;;;;;1.63;1.33;;;;;;;;;;5047507;28;20033;-79
2022/06/02 12:06:34;;;;;;;3.90;1.90;;;;;;;;;;5047703;28;20049;-75
2022/06/02 12:09:09;;;;;;;3.30;1.58;;;;;;;;;;5048966;28;20040;-77
2022/06/02 12:11:53;;;;;;;2.10;1.15;;;;;;;;;;5048649;28;20472;-76
2022/06/02 12:14:29;;;;;;;3.83;0.95;;;;;;;;;;5048324;28;20446;-77
2022/06/02 12:16:54;;;;;;;2.42;1.42;;;;;;;;;;5030669;28;20075;-76
2022/06/02 12:19:38;;;;;;;8.35;2.13;;;;;;;;;;5056629;28;20488;-75
2022/06/02 12:22:07;;;;;;;6.85;1.27;;;;;;;;;;5068844;28;20537;-76
2022/06/02 12:25:02;;;;;;;1.05;0.70;;;;;;;;;;5068317;28;20029;-76
2022/06/02 12:27:30;;;;;;;1.58;0.70;;;;;;;;;;5038277;28;20048;-76
2022/06/02 12:30:11;;;;;;;4.67;2.93;;;;;;;;;;5068494;28;20016;-77
2022/06/02 12:32:39;;;;;;;5.95;1.85;;;;;;;;;;5068432;28;20308;-76
2022/06/02 12:35:08;;;;;;;1.98;0.77;;;;;;;;;;5068209;28;20162;-76
2022/06/02 12:37:39;;;;;;;3.20;1.75;;;;;;;;;;5068367;28;20039;-76
2022/06/02 12:40:11;;;;;;;3.05;1.15;;;;;;;;;;5068402;28;20040;-76
2022/06/02 12:42:40;;;;;;;0.75;0.70;;;;;;;;;;5068211;28;20523;-76
2022/06/02 12:45:31;;;;;;;2.15;2.05;;;;;;;;;;5068138;28;20039;-75
2022/06/02 12:48:15;;;;;;;2.40;1.60;;;;;;;;;;5049965;28;20037;-77
2022/06/02 12:50:51;;;;;;;2.60;1.15;;;;;;;;;;5068104;28;20113;-76
2022/06/02 12:53:30;;;;;;;5.75;2.10;;;;;;;;;;5050040;28;20082;-76
2022/06/02 12:56:15;;;;;;;1.40;0.85;;;;;;;;;;5049722;28;20131;-76
2022/06/02 12:58:43;;;;;;;1.88;1.02;;;;;;;;;;5050553;28;20063;-76
2022/06/02 13:01:09;;;;;;;0.60;0.60;;;;;;;;;;5070569;28;20033;-76
2022/06/02 13:03:47;;;;;;;1.45;1.35;;;;;;;;;;5053582;28;20082;-75
2022/06/02 13:06:13;;;;;;;0.55;0.55;;;;;;;;;;5071274;28;20040;-76
2022/06/02 13:08:38;;;;;;;0.87;0.60;;;;;;;;;;5071208;28;20086;-76
2022/06/02 13:11:22;;;;;;;0.37;0.30;;;;;;;;;;5071682;28;20262;-76
2022/06/02 13:14:06;;;;;;;0.20;0.20;;;;;;;;;;5071637;28;20736;-75
2022/06/02 13:16:34;;;;;;;0.98;0.88;;;;;;;;;;5071785;28;20028;-76
2022/06/02 13:19:17;;;;;;;0.30;0.30;;;;;;;;;;5070597;28;20024;-77
2022/06/02 13:22:02;;;;;;;0.45;0.40;;;;;;;;;;5071747;28;20033;-79
2022/06/02 13:24:32;;;;;;;0.60;0.50;;;;;;;;;;5030490;28;20110;-75
2022/06/02 13:26:58;;;;;;;2.17;0.40;;;;;;;;;;5031264;28;20087;-78
2022/06/02 13:29:36;;;;;;;0.35;0.35;;;;;;;;;;5031061;28;20025;-77
2022/06/02 13:32:04;;;;;;;4.75;1.40;;;;;;;;;;5031562;28;20120;-77
2022/06/02 13:34:39;;;;;;;1.97;1.73;;;;;;;;;;5031218;28;20036;-76
2022/06/02 13:37:17;;;;;;;0.63;0.52;;;;;;;;;;5031400;28;20272;-78
2022/06/02 13:39:51;;;;;;;0.80;0.80;;;;;;;;;;5031456;28;20083;-77
2022/06/02 13:42:29;;;;;;;0.30;0.30;;;;;;;;;;5030022;28;20112;-80
2022/06/02 13:45:10;;;;;;;2.25;2.10;;;;;;;;;;5031220;28;20025;-77
2022/06/02 13:47:44;;;;;;;0.32;0.32;;;;;;;;;;5031051;28;20037;-78
2022/06/02 13:50:26;;;;;;;4.43;1.75;;;;;;;;;;5036646;28;20484;-77
2022/06/02 13:53:04;;;;;;;1.33;0.75;;;;;;;;;;5033509;28;20086;-77
2022/06/02 13:58:16;;;;;;;0.50;0.50;;;;;;;;;;5050643;28;20033;-78
2022/06/02 14:00:41;;;;;;;1.45;0.50;;;;;;;;;;5048306;28;20041;-78
2022/06/02 14:03:06;;;;;;;0.37;0.37;;;;;;;;;;5038612;28;20036;-78
2022/06/02 14:05:44;;;;;;;2.87;1.60;;;;;;;;;;5050636;28;20806;-76
2022/06/02 14:08:24;;;;;;;1.63;0.73;;;;;;;;;;5050588;28;20382;-76
2022/06/02 14:11:08;;;;;;;1.10;0.65;;;;;;;;;;5027396;28;20071;-76
2022/06/02 14:13:53;;;;;;;1.40;1.08;;;;;;;;;;5012690;28;20496;-77
2022/06/02 14:16:25;;;;;;;0.40;0.40;;;;;;;;;;5005889;28;20139;-78
2022/06/02 14:18:50;;;;;;;0.65;0.60;;;;;;;;;;5029140;28;20026;-76
2022/06/02 14:21:19;;;;;;;0.60;0.60;;;;;;;;;;5047969;28;20150;-76
2022/06/02 14:24:03;;;;;;;1.20;0.95;;;;;;;;;;5046191;28;20263;-77
2022/06/02 14:26:47;;;;;;;0.50;0.50;;;;;;;;;;5062418;28;20032;-75
2022/06/02 14:29:32;;;;;;;0.22;0.22;;;;;;;;;;5070224;28;20032;-75
2022/06/02 14:32:08;;;;;;;0.45;0.45;;;;;;;;;;5069905;28;20048;-75
2022/06/02 14:34:40;;;;;;;0.38;0.38;;;;;;;;;;5052332;28;20036;-74
2022/06/02 14:37:09;;;;;;;1.40;0.60;;;;;;;;;;5037809;28;20098;-78
2022/06/02 14:39:34;;;;;;;;;;;;;;;;;;5029718;28;20032;-77
2022/06/02 14:42:19;;;;;;;0.40;0.40;;;;;;;;;;5028991;28;20499;-77
2022/06/02 14:45:05;;;;;;;4.38;1.23;;;;;;;;;;5029986;28;20037;-77
2022/06/02 14:47:40;;;;;;;0.75;0.75;;;;;;;;;;5030114;28;20473;-76
2022/06/02 14:50:08;;;;;;;2.65;1.02;;;;;;;;;;5028473;28;20030;-75
2022/06/02 14:52:52;;;;;;;0.40;0.38;;;;;;;;;;5029928;28;20017;-76
2022/06/02 14:55:20;;;;;;;0.35;0.35;;;;;;;;;;5034538;28;20655;-77
2022/06/02 14:57:52;;;;;;;0.30;0.30;;;;;;;;;;5028847;28;20120;-76
2022/06/02 15:00:24;;;;;;;1.65;0.63;;;;;;;;;;5030211;28;20508;-76
2022/06/02 15:02:49;;;;;;;0.30;0.30;;;;;;;;;;5029983;28;20041;-75
2022/06/02 15:05:27;;;;;;;0.43;0.38;;;;;;;;;;5029985;28;20163;-75
2022/06/02 15:08:11;;;;;;;0.30;0.30;;;;;;;;;;5029743;28;20041;-77
2022/06/02 15:10:49;;;;;;;0.35;0.35;;;;;;;;;;5029764;28;20527;-75
2022/06/02 15:16:29;;;;;;;1.70;0.82;;;;;;;;;;5029426;28;20444;-77
2022/06/02 15:19:13;;;;;;;0.47;0.47;;;;;;;;;;5029552;28;20046;-76
2022/06/02 15:21:54;;;;;;;0.50;0.50;;;;;;;;;;5029376;28;20033;-75
2022/06/02 15:24:20;;;;;;;0.40;0.40;;;;;;;;;;5011643;28;20393;-76
2022/06/02 15:27:04;;;;;;;0.50;0.50;;;;;;;;;;5029475;28;20041;-76
2022/06/02 15:29:29;;;;;;;0.40;0.40;;;;;;;;;;5029318;28;20473;-76
2022/06/02 15:32:07;;;;;;;0.30;0.30;;;;;;;;;;5029538;28;20036;-75
2022/06/02 15:34:57;;;;;;;0.25;0.25;;;;;;;;;;5029495;28;20276;-75
2022/06/02 15:37:41;;;;;;;0.30;0.30;;;;;;;;;;5011810;28;20088;-75
2022/06/02 15:40:25;;;;;;;1.65;0.40;;;;;;;;;;5029219;28;20029;-75
2022/06/02 15:43:09;;;;;;;0.47;0.40;;;;;;;;;;5029661;28;20207;-76
2022/06/02 15:45:43;;;;;;;3.85;0.85;;;;;;;;;;5011504;28;20052;-75
2022/06/02 15:48:13;;;;;;;0.73;0.50;;;;;;;;;;5011198;28;20033;-77
2022/06/02 15:50:51;;;;;;;0.20;0.20;;;;;;;;;;5029656;28;20095;-77